createdAt,value
2022-08-18T00:00:11.025Z,8.60
2022-08-18T00:02:54.447Z,8.10
2022-08-18T00:05:31.814Z,7.90
2022-08-18T00:08:02.163Z,7.60
2022-08-18T00:10:32.930Z,8.10
2022-08-18T00:13:03.723Z,7.20
2022-08-18T00:15:41.479Z,6.50
2022-08-18T00:18:19.366Z,6.80
2022-08-18T00:20:49.791Z,7.90
2022-08-18T00:23:20.353Z,7.60
2022-08-18T00:25:50.738Z,7.90
2022-08-18T00:28:21.043Z,8.00
2022-08-18T00:30:55.973Z,7.50
2022-08-18T00:33:29.592Z,8.10
2022-08-18T00:36:00.101Z,8.00
2022-08-18T00:38:30.559Z,8.40
2022-08-18T00:41:00.992Z,7.40
2022-08-18T00:43:37.722Z,7.50
2022-08-18T00:46:13.599Z,8.00
2022-08-18T00:48:48.661Z,8.20
2022-08-18T00:51:24.564Z,8.40
2022-08-18T00:54:02.153Z,8.30
2022-08-18T00:56:37.290Z,7.60
2022-08-18T00:59:13.916Z,8.30
2022-08-18T01:04:20.807Z,8.20
2022-08-18T01:06:55.105Z,8.70
2022-08-18T01:09:25.991Z,7.70
2022-08-18T01:11:59.147Z,8.80
2022-08-18T01:14:29.854Z,7.40
2022-08-18T01:17:17.658Z,7.70
2022-08-18T01:20:05.682Z,8.10
2022-08-18T01:22:44.758Z,8.00
2022-08-18T01:25:33.632Z,7.20
2022-08-18T01:28:04.638Z,8.00
2022-08-18T01:30:45.858Z,8.30
2022-08-18T01:33:16.342Z,7.30
2022-08-18T01:35:49.582Z,6.80
2022-08-18T01:38:22.305Z,7.70
2022-08-18T01:41:21.964Z,7.90
2022-08-18T01:43:46.345Z,8.20
2022-08-18T01:46:22.050Z,8.20
2022-08-18T01:48:53.706Z,7.70
2022-08-18T01:51:39.615Z,7.70
2022-08-18T01:54:15.762Z,7.90
2022-08-18T01:56:48.365Z,8.20
2022-08-18T01:59:18.834Z,8.30
2022-08-18T02:01:53.019Z,7.80
2022-08-18T02:04:36.427Z,7.20
2022-08-18T02:07:12.136Z,8.60
2022-08-18T02:09:44.472Z,8.60
2022-08-18T02:12:16.204Z,8.30
2022-08-18T02:14:47.027Z,8.70
2022-08-18T02:17:17.515Z,8.20
2022-08-18T02:19:49.244Z,8.20
2022-08-18T02:22:22.541Z,8.20
2022-08-18T02:24:52.945Z,8.80
2022-08-18T02:27:23.850Z,7.80
2022-08-18T02:29:55.353Z,9.10
2022-08-18T02:32:25.718Z,9.60
2022-08-18T02:34:59.957Z,9.50
2022-08-18T02:37:31.269Z,9.00
2022-08-18T02:40:01.827Z,9.80
2022-08-18T02:42:32.292Z,9.00
2022-08-18T02:45:03.129Z,8.90
2022-08-18T02:47:33.890Z,8.10
2022-08-18T02:50:04.429Z,8.70
2022-08-18T02:52:35.599Z,8.50
2022-08-18T02:55:07.601Z,8.90
2022-08-18T02:57:42.479Z,9.00
2022-08-18T03:00:16.022Z,8.90
2022-08-18T03:05:20.347Z,7.30
2022-08-18T03:07:51.466Z,8.60
2022-08-18T03:10:32.868Z,8.20
2022-08-18T03:13:07.275Z,8.00
2022-08-18T03:15:37.668Z,8.20
2022-08-18T03:18:08.130Z,7.90
2022-08-18T03:20:39.134Z,8.80
2022-08-18T03:23:12.185Z,9.70
2022-08-18T03:25:49.426Z,9.50
2022-08-18T03:28:20.948Z,9.50
2022-08-18T03:30:52.929Z,10.20
2022-08-18T03:33:23.329Z,10.20
2022-08-18T03:35:53.628Z,10.20
2022-08-18T03:38:24.405Z,9.50
2022-08-18T03:40:55.818Z,10.10
2022-08-18T03:43:51.005Z,9.30
2022-08-18T03:46:19.534Z,9.70
2022-08-18T03:48:51.459Z,8.10
2022-08-18T03:51:24.792Z,9.20
2022-08-18T03:53:59.178Z,9.60
2022-08-18T03:56:33.672Z,9.00
2022-08-18T03:59:07.938Z,9.90
2022-08-18T04:01:41.973Z,8.30
2022-08-18T04:04:15.091Z,11.40
2022-08-18T04:06:50.154Z,10.30
2022-08-18T04:09:21.790Z,10.30
2022-08-18T04:11:52.717Z,9.70
2022-08-18T04:14:25.828Z,10.30
2022-08-18T04:16:56.149Z,9.70
2022-08-18T04:19:27.837Z,9.40
2022-08-18T04:21:59.372Z,10.10
2022-08-18T04:24:33.088Z,9.90
2022-08-18T04:27:06.093Z,10.90
2022-08-18T04:29:36.378Z,9.90
2022-08-18T04:32:07.933Z,10.40
2022-08-18T04:34:38.598Z,10.50
2022-08-18T04:37:13.290Z,10.60
2022-08-18T04:39:44.321Z,10.80
2022-08-18T04:42:15.091Z,11.20
2022-08-18T04:44:45.831Z,12.00
2022-08-18T04:47:16.324Z,12.00
2022-08-18T04:49:47.639Z,11.20
2022-08-18T04:52:41.809Z,11.40
2022-08-18T04:55:13.210Z,11.00
2022-08-18T04:57:43.678Z,11.00
2022-08-18T05:00:14.610Z,10.90
2022-08-18T05:02:44.930Z,11.30
2022-08-18T05:05:15.396Z,12.40
2022-08-18T05:07:49.479Z,12.60
2022-08-18T05:10:19.899Z,10.80
2022-08-18T05:12:53.446Z,12.00
2022-08-18T05:15:23.827Z,12.50
2022-08-18T05:17:54.414Z,11.60
2022-08-18T05:20:25.444Z,11.40
2022-08-18T05:22:58.419Z,10.60
2022-08-18T05:25:29.446Z,12.10
2022-08-18T05:27:59.870Z,12.80
2022-08-18T05:30:30.272Z,11.90
2022-08-18T05:33:01.444Z,11.90
2022-08-18T05:35:38.080Z,11.90
2022-08-18T05:40:57.356Z,11.20
2022-08-18T05:43:31.937Z,11.20
2022-08-18T05:46:05.586Z,11.20
2022-08-18T05:48:42.708Z,11.40
2022-08-18T05:51:19.469Z,10.80
2022-08-18T05:54:07.401Z,11.70
2022-08-18T05:56:50.469Z,12.30
2022-08-18T05:59:26.425Z,11.50
2022-08-18T06:02:02.009Z,11.40
2022-08-18T06:04:46.871Z,10.90
2022-08-18T06:07:25.206Z,11.10
2022-08-18T06:09:57.692Z,10.20
2022-08-18T06:12:33.475Z,10.20
2022-08-18T06:15:15.478Z,11.50
2022-08-18T06:18:01.068Z,10.10
2022-08-18T06:20:43.451Z,10.60
2022-08-18T06:23:28.091Z,11.30
2022-08-18T06:26:11.810Z,11.40
2022-08-18T06:28:56.124Z,9.80
2022-08-18T06:31:31.912Z,10.40
2022-08-18T06:34:10.912Z,10.90
2022-08-18T06:36:48.521Z,10.10
2022-08-18T06:39:26.341Z,9.80
2022-08-18T06:41:57.447Z,10.30
2022-08-18T06:44:34.435Z,10.80
2022-08-18T06:47:16.258Z,11.20
2022-08-18T06:49:54.847Z,10.80
2022-08-18T06:52:29.193Z,10.90
2022-08-18T06:55:01.995Z,12.00
2022-08-18T06:57:35.489Z,10.90
2022-08-18T07:00:11.524Z,11.20
2022-08-18T07:02:48.174Z,12.50
2022-08-18T07:05:30.698Z,10.90
2022-08-18T07:08:12.756Z,11.60
2022-08-18T07:10:46.401Z,11.50
2022-08-18T07:13:26.859Z,7.80
2022-08-18T07:16:15.828Z,11.80
2022-08-18T07:18:47.837Z,12.80
2022-08-18T07:21:29.696Z,12.60
2022-08-18T07:24:24.217Z,11.40
2022-08-18T07:27:05.551Z,12.20
2022-08-18T07:29:39.157Z,11.90
2022-08-18T07:32:20.985Z,13.20
2022-08-18T07:34:58.348Z,12.70
2022-08-18T07:37:34.096Z,12.50
2022-08-18T07:40:15.487Z,11.30
2022-08-18T07:43:01.452Z,11.90
2022-08-18T07:45:38.238Z,13.10
2022-08-18T07:48:37.702Z,12.90
2022-08-18T07:51:15.186Z,12.70
2022-08-18T07:53:59.330Z,12.70
2022-08-18T07:56:42.908Z,12.30
2022-08-18T07:59:17.906Z,12.00
2022-08-18T08:01:56.474Z,11.90
2022-08-18T08:04:38.244Z,11.90
2022-08-18T08:07:28.723Z,11.90
2022-08-18T08:10:14.012Z,11.40
2022-08-18T08:12:58.387Z,11.90
2022-08-18T08:15:49.949Z,11.70
2022-08-18T08:18:26.387Z,11.20
2022-08-18T08:23:35.300Z,10.60
2022-08-18T08:26:37.638Z,11.20
2022-08-18T08:29:22.722Z,12.10
2022-08-18T08:32:02.633Z,10.70
2022-08-18T08:34:38.596Z,10.60
2022-08-18T08:37:15.851Z,10.70
2022-08-18T08:39:51.359Z,10.50
2022-08-18T08:42:34.461Z,10.60
2022-08-18T08:45:11.051Z,11.00
2022-08-18T08:47:51.852Z,10.20
2022-08-18T08:50:26.582Z,10.50
2022-08-18T08:53:00.896Z,11.30
2022-08-18T08:55:35.371Z,10.40
2022-08-18T08:58:18.080Z,10.40
2022-08-18T09:00:51.770Z,10.50
2022-08-18T09:03:32.685Z,11.80
2022-08-18T09:06:20.308Z,11.30
2022-08-18T09:09:08.039Z,10.30
2022-08-18T09:12:01.322Z,10.20
2022-08-18T09:15:02.427Z,10.60
2022-08-18T09:17:55.621Z,9.40
2022-08-18T09:20:47.139Z,9.20
2022-08-18T09:23:25.269Z,9.80
2022-08-18T09:25:58.596Z,9.40
2022-08-18T09:31:31.662Z,9.70
2022-08-18T09:34:26.433Z,8.20
2022-08-18T09:37:12.212Z,9.80
2022-08-18T09:40:12.461Z,9.30
2022-08-18T09:42:50.389Z,8.60
2022-08-18T09:45:54.700Z,8.60
2022-08-18T09:48:30.578Z,10.30
2022-08-18T09:51:34.949Z,7.90
2022-08-18T09:54:25.122Z,9.00
2022-08-18T09:57:19.487Z,8.40
2022-08-18T09:59:57.345Z,8.10
2022-08-18T10:03:11.530Z,8.60
2022-08-18T10:05:57.288Z,9.30
2022-08-18T10:08:49.558Z,8.40
2022-08-18T10:11:30.455Z,8.60
2022-08-18T10:14:18.697Z,9.00
2022-08-18T10:17:21.310Z,8.30
2022-08-18T10:20:01.067Z,7.60
2022-08-18T10:22:44.798Z,8.10
2022-08-18T10:25:30.965Z,7.30
2022-08-18T10:28:06.022Z,7.00
2022-08-18T10:34:16.025Z,7.50
2022-08-18T10:36:53.798Z,7.10
2022-08-18T10:39:28.446Z,7.40
2022-08-18T10:42:15.492Z,7.30
2022-08-18T10:44:48.806Z,7.50
2022-08-18T10:50:27.479Z,6.50
2022-08-18T10:53:40.379Z,6.70
2022-08-18T10:56:05.761Z,6.70
2022-08-18T10:58:51.056Z,6.50
2022-08-18T11:01:41.234Z,6.50
2022-08-18T11:07:30.853Z,6.20
2022-08-18T11:10:58.090Z,5.70
2022-08-18T11:13:18.815Z,6.00
2022-08-18T11:16:04.363Z,5.60
2022-08-18T11:18:45.055Z,6.00
2022-08-18T11:21:42.827Z,6.10
2022-08-18T11:24:17.728Z,5.20
2022-08-18T11:26:52.994Z,6.00
2022-08-18T11:29:32.393Z,5.50
2022-08-18T11:32:11.312Z,5.70
2022-08-18T11:34:53.128Z,4.10
2022-08-18T11:43:41.559Z,5.80
2022-08-18T11:46:27.775Z,5.00
2022-08-18T11:49:01.851Z,18.10
2022-08-18T11:51:35.996Z,5.60
2022-08-18T11:54:24.921Z,5.60
2022-08-18T11:57:15.452Z,6.00
2022-08-18T11:59:55.168Z,4.30
2022-08-18T12:02:31.111Z,4.50
2022-08-18T12:05:10.355Z,4.80
2022-08-18T12:07:49.708Z,5.50
2022-08-18T12:10:29.688Z,4.50
2022-08-18T12:13:01.233Z,5.60
2022-08-18T12:15:46.689Z,5.90
2022-08-18T12:18:28.966Z,6.20
2022-08-18T12:21:03.038Z,6.40
2022-08-18T12:23:39.022Z,6.00
2022-08-18T12:26:38.035Z,7.00
2022-08-18T12:29:11.105Z,6.20
2022-08-18T12:31:47.613Z,6.90
2022-08-18T12:34:33.492Z,5.70
2022-08-18T12:37:10.290Z,6.10
2022-08-18T12:39:55.808Z,6.60
2022-08-18T12:42:28.715Z,7.30
2022-08-18T12:45:01.883Z,7.40
2022-08-18T12:47:32.670Z,6.80
2022-08-18T12:50:10.129Z,7.70
2022-08-18T12:52:41.296Z,8.00
2022-08-18T12:55:21.835Z,8.20
2022-08-18T12:57:53.776Z,7.70
2022-08-18T13:00:28.775Z,8.70
2022-08-18T13:03:00.358Z,7.70
2022-08-18T13:05:30.872Z,8.10
2022-08-18T13:08:04.873Z,8.10
2022-08-18T13:10:45.343Z,8.10
2022-08-18T13:13:18.391Z,8.10
2022-08-18T13:15:58.667Z,7.20
2022-08-18T13:18:31.636Z,8.20
2022-08-18T13:21:03.323Z,8.60
2022-08-18T13:23:33.817Z,7.70
2022-08-18T13:26:09.371Z,8.00
2022-08-18T13:28:56.693Z,8.50
2022-08-18T13:31:28.981Z,8.60
2022-08-18T13:34:03.797Z,8.20
2022-08-18T13:36:45.945Z,8.50
2022-08-18T13:39:18.698Z,8.20
2022-08-18T13:41:52.726Z,8.80
2022-08-18T13:44:25.821Z,7.40
2022-08-18T13:46:56.359Z,7.70
2022-08-18T13:49:30.509Z,7.00
2022-08-18T13:52:03.353Z,6.70
2022-08-18T13:54:36.448Z,7.20
2022-08-18T13:57:09.303Z,6.70
2022-08-18T13:59:46.676Z,6.50
2022-08-18T14:02:17.554Z,6.60
2022-08-18T14:04:49.513Z,5.90
2022-08-18T14:07:27.677Z,6.30
2022-08-18T14:09:59.097Z,5.80
2022-08-18T14:15:08.810Z,5.90
2022-08-18T14:17:39.702Z,5.40
2022-08-18T14:20:30.344Z,5.40
2022-08-18T14:23:21.576Z,5.50
2022-08-18T14:26:10.828Z,4.70
2022-08-18T14:28:41.539Z,5.10
2022-08-18T14:31:12.992Z,4.80
2022-08-18T14:33:51.508Z,5.00
2022-08-18T14:36:29.559Z,5.00
2022-08-18T14:39:01.450Z,4.90
2022-08-18T14:41:32.620Z,4.60
2022-08-18T14:44:12.344Z,4.70
2022-08-18T14:46:52.180Z,4.40
2022-08-18T14:49:29.173Z,4.30
2022-08-18T14:52:01.039Z,4.30
2022-08-18T14:54:34.759Z,4.10
2022-08-18T14:57:09.646Z,3.80
2022-08-18T14:59:40.223Z,4.30
2022-08-18T15:02:13.317Z,3.70
2022-08-18T15:04:53.250Z,4.00
2022-08-18T15:07:27.328Z,4.00
2022-08-18T15:10:15.339Z,3.50
2022-08-18T15:12:49.315Z,4.20
2022-08-18T15:15:22.604Z,4.20
2022-08-18T15:17:53.713Z,3.90
2022-08-18T15:20:28.873Z,3.40
2022-08-18T15:23:22.625Z,3.20
2022-08-18T15:25:55.310Z,4.20
2022-08-18T15:28:27.929Z,4.40
2022-08-18T15:33:51.167Z,3.60
2022-08-18T15:36:28.794Z,3.50
2022-08-18T15:38:59.509Z,3.50
2022-08-18T15:41:44.316Z,3.70
2022-08-18T15:44:16.735Z,4.20
2022-08-18T15:46:53.104Z,3.70
2022-08-18T15:49:24.360Z,3.70
2022-08-18T15:51:54.641Z,4.10
2022-08-18T15:54:25.404Z,4.00
2022-08-18T15:56:58.446Z,4.50
2022-08-18T15:59:33.987Z,4.30
2022-08-18T16:02:11.933Z,4.60
2022-08-18T16:04:49.557Z,4.10
2022-08-18T16:07:40.053Z,4.10
2022-08-18T16:10:12.271Z,4.60
2022-08-18T16:12:45.704Z,4.50
2022-08-18T16:15:19.201Z,4.80
2022-08-18T16:17:51.692Z,4.70
2022-08-18T16:20:24.307Z,4.50
2022-08-18T16:22:55.707Z,4.50
2022-08-18T16:25:27.137Z,4.70
2022-08-18T16:27:59.096Z,4.60
2022-08-18T16:30:30.779Z,5.40
2022-08-18T16:33:05.407Z,4.60
2022-08-18T16:35:37.334Z,5.00
2022-08-18T16:38:09.540Z,4.60
2022-08-18T16:40:40.336Z,4.70
2022-08-18T16:43:12.736Z,4.50
2022-08-18T16:45:43.699Z,5.10
2022-08-18T16:48:16.768Z,4.80
2022-08-18T16:50:49.431Z,4.70
2022-08-18T16:53:19.858Z,4.90
2022-08-18T16:55:50.725Z,4.70
2022-08-18T16:58:38.854Z,5.20
2022-08-18T17:01:26.938Z,5.00
2022-08-18T17:04:14.837Z,4.70
2022-08-18T17:06:52.303Z,4.60
2022-08-18T17:09:24.313Z,5.40
2022-08-18T17:11:55.894Z,5.40
2022-08-18T17:14:30.341Z,5.00
2022-08-18T17:17:01.466Z,5.30
2022-08-18T17:19:34.757Z,4.80
2022-08-18T17:22:06.390Z,4.80
2022-08-18T17:24:37.696Z,5.40
2022-08-18T17:27:27.169Z,5.30
2022-08-18T17:30:04.068Z,5.10
2022-08-18T17:32:42.066Z,5.10
2022-08-18T17:35:17.786Z,5.00
2022-08-18T17:37:54.522Z,5.40
2022-08-18T17:40:30.783Z,5.20
2022-08-18T17:43:01.792Z,5.20
2022-08-18T17:45:34.936Z,5.30
2022-08-18T17:48:11.407Z,5.40
2022-08-18T17:51:03.335Z,5.30
2022-08-18T17:53:36.261Z,5.10
2022-08-18T17:56:13.406Z,5.00
2022-08-18T17:58:51.707Z,4.90
2022-08-18T18:01:22.352Z,5.20
2022-08-18T18:03:52.789Z,5.40
2022-08-18T18:06:30.440Z,5.50
2022-08-18T18:09:07.990Z,4.90
2022-08-18T18:11:41.293Z,5.60
2022-08-18T18:14:29.725Z,5.40
2022-08-18T18:17:11.760Z,5.90
2022-08-18T18:19:45.779Z,5.50
2022-08-18T18:22:24.062Z,5.90
2022-08-18T18:24:57.400Z,5.30
2022-08-18T18:27:33.208Z,5.70
2022-08-18T18:30:07.433Z,5.30
2022-08-18T18:32:59.225Z,5.90
2022-08-18T18:35:34.092Z,5.00
2022-08-18T18:38:23.725Z,5.70
2022-08-18T18:41:00.623Z,5.70
2022-08-18T18:43:38.181Z,5.50
2022-08-18T18:46:32.158Z,5.70
2022-08-18T18:49:14.552Z,5.50
2022-08-18T18:51:58.156Z,5.80
2022-08-18T18:54:50.427Z,5.70
2022-08-18T18:57:31.968Z,5.70
2022-08-18T19:00:18.095Z,5.40
2022-08-18T19:03:03.904Z,5.70
2022-08-18T19:05:41.037Z,5.60
2022-08-18T19:08:26.473Z,6.30
2022-08-18T19:11:05.328Z,5.70
2022-08-18T19:13:40.636Z,5.90
2022-08-18T19:16:23.604Z,6.60
2022-08-18T19:19:37.575Z,6.30
2022-08-18T19:22:05.677Z,6.10
2022-08-18T19:24:44.804Z,6.10
2022-08-18T19:27:23.478Z,6.30
2022-08-18T19:29:59.601Z,6.20
2022-08-18T19:32:40.932Z,6.20
2022-08-18T19:35:19.479Z,6.40
2022-08-18T19:38:10.329Z,6.70
2022-08-18T19:40:47.942Z,6.50
2022-08-18T19:43:27.804Z,6.50
2022-08-18T19:46:11.440Z,6.30
2022-08-18T19:48:52.984Z,7.00
2022-08-18T19:51:32.098Z,5.40
2022-08-18T19:54:21.592Z,6.40
2022-08-18T19:57:07.643Z,6.50
2022-08-18T20:00:10.500Z,6.80
2022-08-18T20:03:04.322Z,6.80
2022-08-18T20:05:51.620Z,6.80
2022-08-18T20:08:49.568Z,6.30
2022-08-18T20:11:41.893Z,6.70
2022-08-18T20:14:18.928Z,6.80
2022-08-18T20:17:21.710Z,6.50
2022-08-18T20:20:14.814Z,6.90
2022-08-18T20:22:47.635Z,7.20
2022-08-18T20:25:40.581Z,6.60
2022-08-18T20:28:36.391Z,7.00
2022-08-18T20:31:14.361Z,6.90
2022-08-18T20:34:03.983Z,6.90
2022-08-18T20:36:42.914Z,6.80
2022-08-18T20:39:42.338Z,6.90
2022-08-18T20:42:51.501Z,5.90
2022-08-18T20:45:33.407Z,6.10
2022-08-18T20:48:17.884Z,6.40
2022-08-18T20:51:10.212Z,7.30
2022-08-18T20:54:01.480Z,6.70
2022-08-18T20:56:46.478Z,6.70
2022-08-18T20:59:22.285Z,5.80
2022-08-18T21:02:02.024Z,6.60
2022-08-18T21:04:54.790Z,6.40
2022-08-18T21:07:36.474Z,6.40
2022-08-18T21:10:19.571Z,6.70
2022-08-18T21:12:58.616Z,6.00
2022-08-18T21:15:32.010Z,6.00
2022-08-18T21:18:06.377Z,6.20
2022-08-18T21:20:39.301Z,6.80
2022-08-18T21:23:12.466Z,6.30
2022-08-18T21:25:52.673Z,6.40
2022-08-18T21:28:26.211Z,6.10
2022-08-18T21:31:43.108Z,6.20
2022-08-18T21:33:59.949Z,6.20
2022-08-18T21:36:31.756Z,6.30
2022-08-18T21:39:10.825Z,6.50
2022-08-18T21:41:48.305Z,6.40
2022-08-18T21:44:22.795Z,5.80
2022-08-18T21:47:03.206Z,6.20
2022-08-18T21:49:34.171Z,7.70
2022-08-18T21:52:04.805Z,7.00
2022-08-18T21:54:37.475Z,6.80
2022-08-18T21:57:24.173Z,6.00
2022-08-18T22:00:26.870Z,6.10
2022-08-18T22:06:25.206Z,6.50
2022-08-18T22:08:58.719Z,6.70
2022-08-18T22:12:00.340Z,6.10
2022-08-18T22:14:54.306Z,6.30
2022-08-18T22:17:35.300Z,6.10
2022-08-18T22:20:39.322Z,6.20
2022-08-18T22:23:41.593Z,6.10
2022-08-18T22:26:12.318Z,6.00
2022-08-18T22:28:51.152Z,6.10
2022-08-18T22:31:21.229Z,6.10
2022-08-18T22:33:50.011Z,5.60
2022-08-18T22:36:23.179Z,6.30
2022-08-18T22:38:52.013Z,6.00
2022-08-18T22:41:21.169Z,6.20
2022-08-18T22:43:54.648Z,5.60
2022-08-18T22:46:25.344Z,6.20
2022-08-18T22:48:54.882Z,6.10
2022-08-18T22:51:26.548Z,5.50
2022-08-18T22:53:56.962Z,6.20
2022-08-18T22:56:34.480Z,5.70
2022-08-18T22:59:13.691Z,5.70
2022-08-18T23:01:51.852Z,6.30
2022-08-18T23:04:23.907Z,6.60
2022-08-18T23:06:53.751Z,5.70
2022-08-18T23:09:25.547Z,6.50
2022-08-18T23:11:56.740Z,6.40
2022-08-18T23:14:25.169Z,5.80
2022-08-18T23:16:56.486Z,5.70
2022-08-18T23:19:26.535Z,6.30
2022-08-18T23:21:56.335Z,5.90
2022-08-18T23:24:26.550Z,6.10
2022-08-18T23:26:58.215Z,5.50
2022-08-18T23:29:26.524Z,6.00
2022-08-18T23:31:57.106Z,5.90
2022-08-18T23:34:27.226Z,6.40
2022-08-18T23:37:05.861Z,5.80
2022-08-18T23:39:38.587Z,6.20
2022-08-18T23:42:09.061Z,6.40
2022-08-18T23:44:38.153Z,5.90
2022-08-18T23:47:07.346Z,5.90
2022-08-18T23:49:38.026Z,6.00
2022-08-18T23:52:09.621Z,6.10
2022-08-18T23:54:38.893Z,5.50
2022-08-18T23:57:08.942Z,5.60
2022-08-18T23:59:38.400Z,5.80
